Time;durP1;ratioP1;P1;durP2;ratioP2;P2;SDS_P1;SDS_P2;PMS_P1;PMS_P2;Temp;Humidity;BMP_temperature;BMP_pressure;BME280_temperature;BME280_humidity;BME280_pressure;Samples;Min_cycle;Max_cycle;Signal;HPM_P1;HPM_P2
2022/12/25 00:00:50;;;;;;;25.00;3.10;;;11.90;99.90;;;;;;5013795;28;20179;-50
2022/12/25 00:03:16;;;;;;;26.50;3.17;;;11.10;99.90;;;;;;5013252;28;20224;-50
2022/12/25 00:05:41;;;;;;;17.50;2.00;;;11.10;99.90;;;;;;5013320;28;20270;-50
2022/12/25 00:08:08;;;;;;;15.13;2.57;;;11.10;99.90;;;;;;5013240;28;20210;-53
2022/12/25 00:10:34;;;;;;;18.70;2.37;;;11.20;99.90;;;;;;5013216;28;20202;-51
2022/12/25 00:13:00;;;;;;;20.07;3.20;;;11.10;99.90;;;;;;5011052;28;20205;-50
2022/12/25 00:15:26;;;;;;;23.67;3.63;;;;;;;;;;4995202;28;20199;-51
2022/12/25 00:17:52;;;;;;;21.73;3.00;;;11.10;99.90;;;;;;5006052;28;20735;-51
2022/12/25 00:20:18;;;;;;;19.80;2.20;;;11.00;99.90;;;;;;5004127;28;20239;-51
2022/12/25 00:22:43;;;;;;;22.90;2.70;;;11.10;99.90;;;;;;5004477;28;20646;-52
2022/12/25 00:25:10;;;;;;;27.17;3.27;;;11.10;99.90;;;;;;5012275;28;20724;-51
2022/12/25 00:27:38;;;;;;;19.43;2.77;;;11.10;99.90;;;;;;5013126;28;20228;-51
2022/12/25 00:30:06;;;;;;;14.50;1.70;;;11.20;99.90;;;;;;4993328;28;20517;-52
2022/12/25 00:32:35;;;;;;;13.53;2.13;;;11.10;99.90;;;;;;5009956;28;20191;-52
2022/12/25 00:35:01;;;;;;;20.70;2.80;;;11.10;99.90;;;;;;5011691;28;20189;-52
2022/12/25 00:37:27;;;;;;;18.40;2.20;;;11.20;99.90;;;;;;5004821;28;20198;-52
2022/12/25 00:39:52;;;;;;;29.03;2.50;;;11.30;99.90;;;;;;5010305;28;20272;-52
2022/12/25 00:42:18;;;;;;;23.43;3.23;;;11.20;99.90;;;;;;5006306;28;20218;-51
2022/12/25 00:44:48;;;;;;;24.80;3.20;;;11.20;99.90;;;;;;5008078;28;20182;-51
2022/12/25 00:47:14;;;;;;;20.10;1.83;;;11.20;99.90;;;;;;5012276;28;20250;-53
2022/12/25 00:49:40;;;;;;;19.43;2.87;;;11.10;99.90;;;;;;5012260;28;20376;-52
2022/12/25 00:52:06;;;;;;;19.13;2.43;;;11.00;99.90;;;;;;5012413;28;20663;-53
2022/12/25 00:54:32;;;;;;;22.97;2.67;;;11.20;99.90;;;;;;5012402;28;20174;-52
2022/12/25 00:56:58;;;;;;;20.43;2.50;;;;;;;;;;5012386;28;20171;-52
2022/12/25 00:59:24;;;;;;;21.47;2.77;;;;;;;;;;5012396;28;20699;-52
2022/12/25 01:01:50;;;;;;;25.70;2.60;;;;;;;;;;5012377;28;20201;-53
2022/12/25 01:04:16;;;;;;;27.40;3.30;;;11.20;99.90;;;;;;5012285;28;20637;-51
2022/12/25 01:06:41;;;;;;;20.87;2.97;;;11.20;99.90;;;;;;5012175;28;20182;-53
2022/12/25 01:11:52;;;;;;;29.80;2.80;;;;;;;;;;5012455;28;20169;-52
2022/12/25 01:14:17;;;;;;;16.93;2.33;;;11.00;99.90;;;;;;5012042;28;20179;-52
2022/12/25 01:16:44;;;;;;;32.57;2.93;;;;;;;;;;5012027;28;20225;-51
2022/12/25 01:19:10;;;;;;;26.67;2.73;;;;;;;;;;5011645;28;20217;-52
2022/12/25 01:21:36;;;;;;;21.20;2.30;;;11.10;99.90;;;;;;5011375;28;20259;-51
2022/12/25 01:24:02;;;;;;;24.17;3.07;;;11.20;99.90;;;;;;5011464;28;20215;-52
2022/12/25 01:26:28;;;;;;;27.23;2.97;;;;;;;;;;5011405;28;20213;-51
2022/12/25 01:28:54;;;;;;;21.23;2.33;;;;;;;;;;5011136;28;20190;-51
2022/12/25 01:31:22;;;;;;;26.33;2.87;;;11.30;99.90;;;;;;4992216;28;20174;-50
2022/12/25 01:33:48;;;;;;;23.50;2.40;;;;;;;;;;5009738;28;20194;-52
2022/12/25 01:36:17;;;;;;;16.57;2.20;;;11.30;99.90;;;;;;5004661;28;20190;-52
2022/12/25 01:38:43;;;;;;;19.03;2.47;;;;;;;;;;5010741;28;20214;-51
2022/12/25 01:41:10;;;;;;;21.97;3.10;;;11.40;99.90;;;;;;5010156;28;20183;-51
2022/12/25 01:44:06;;;;;;;26.90;2.87;;;11.30;99.90;;;;;;4996677;28;20180;-52
2022/12/25 01:46:33;;;;;;;23.97;2.50;;;11.20;99.90;;;;;;4998936;28;20178;-51
2022/12/25 01:49:07;;;;;;;20.97;2.43;;;11.10;99.90;;;;;;5010844;28;20231;-51
2022/12/25 01:51:43;;;;;;;22.63;2.97;;;11.10;99.90;;;;;;5011721;28;20216;-51
2022/12/25 01:54:16;;;;;;;21.17;2.90;;;11.10;99.90;;;;;;5011585;28;20362;-51
2022/12/25 01:56:44;;;;;;;29.70;3.73;;;11.10;99.90;;;;;;5011452;28;20181;-52
2022/12/25 01:59:12;;;;;;;27.57;2.97;;;11.10;99.90;;;;;;5011422;28;20238;-53
2022/12/25 02:01:38;;;;;;;18.37;3.00;;;11.00;99.90;;;;;;5011472;28;20618;-53
2022/12/25 02:04:38;;;;;;;22.27;2.33;;;11.00;99.90;;;;;;5011300;28;20590;-52
2022/12/25 02:07:12;;;;;;;32.10;3.40;;;11.00;99.90;;;;;;5011138;28;20181;-51
2022/12/25 02:09:38;;;;;;;22.30;2.80;;;11.10;99.90;;;;;;5011253;28;20523;-51
2022/12/25 02:12:05;;;;;;;28.63;2.83;;;11.30;99.90;;;;;;5011302;28;20177;-52
2022/12/25 02:14:33;;;;;;;22.37;3.43;;;11.10;99.90;;;;;;5011409;28;20190;-52
2022/12/25 02:17:07;;;;;;;24.97;2.70;;;11.30;99.90;;;;;;5011362;28;20174;-51
2022/12/25 02:20:12;;;;;;;28.63;3.83;;;11.20;99.90;;;;;;5011055;28;20216;-51
2022/12/25 02:23:02;;;;;;;19.37;2.90;;;11.20;99.90;;;;;;4995375;28;20224;-51
2022/12/25 02:26:05;;;;;;;24.73;3.20;;;11.20;99.90;;;;;;5008331;28;20182;-51
2022/12/25 02:29:24;;;;;;;24.30;3.23;;;11.10;99.90;;;;;;5007263;28;20771;-53
2022/12/25 02:32:04;;;;;;;29.13;3.20;;;11.20;99.90;;;;;;4955635;28;20186;-51
2022/12/25 02:34:35;;;;;;;24.77;2.70;;;11.40;99.90;;;;;;4964560;28;20183;-51
2022/12/25 02:37:10;;;;;;;24.13;2.40;;;11.20;99.90;;;;;;4991284;28;20219;-52
2022/12/25 02:39:57;;;;;;;20.90;2.97;;;11.00;99.90;;;;;;5010064;28;20257;-51
2022/12/25 03:08:18;;;;;;;18.67;2.03;;;10.50;99.90;;;;;;5014852;28;20593;-51
2022/12/25 03:13:36;;;;;;;14.23;1.77;;;10.50;99.90;;;;;;5014718;28;20182;-52
2022/12/25 03:18:46;;;;;;;14.87;1.67;;;10.40;99.90;;;;;;5014209;28;20289;-52
2022/12/25 03:26:56;;;;;;;11.93;1.50;;;10.10;99.90;;;;;;5011749;28;20248;-53
2022/12/25 03:32:47;;;;;;;17.23;2.00;;;10.30;99.90;;;;;;5013435;28;20256;-52
2022/12/25 03:35:42;;;;;;;11.37;1.47;;;10.20;99.90;;;;;;5013434;28;20190;-53
2022/12/25 04:36:52;;;;;;;49.30;4.37;;;10.60;99.90;;;;;;5012988;28;20273;-51
2022/12/25 04:39:17;;;;;;;34.70;3.83;;;12.10;99.90;;;;;;5012152;28;20312;-51
2022/12/25 04:41:43;;;;;;;41.57;3.80;;;10.70;99.90;;;;;;5012819;28;20540;-55
2022/12/25 04:44:08;;;;;;;38.27;3.70;;;10.70;99.90;;;;;;5012507;28;20549;-54
2022/12/25 04:46:34;;;;;;;44.20;4.50;;;10.80;99.90;;;;;;5012420;28;20189;-51
2022/12/25 04:49:00;;;;;;;33.33;3.60;;;10.80;99.90;;;;;;5011801;28;20245;-52
2022/12/25 04:51:25;;;;;;;36.53;4.80;;;10.80;99.90;;;;;;5012399;28;20262;-52
2022/12/25 04:53:52;;;;;;;43.73;4.17;;;10.90;99.90;;;;;;5012331;28;20646;-50
2022/12/25 04:56:18;;;;;;;35.10;4.13;;;10.80;99.90;;;;;;5010856;28;20285;-51
2022/12/25 04:58:45;;;;;;;35.70;3.47;;;10.80;99.90;;;;;;4999567;28;20217;-50
2022/12/25 05:01:11;;;;;;;40.80;4.07;;;10.80;99.90;;;;;;5003331;28;20182;-50
2022/12/25 05:03:37;;;;;;;35.67;4.57;;;10.80;99.90;;;;;;5011493;28;20254;-50
2022/12/25 05:06:05;;;;;;;39.60;4.00;;;10.80;99.90;;;;;;5011036;28;20650;-51
2022/12/25 05:08:33;;;;;;;40.10;4.60;;;10.90;99.90;;;;;;5003664;28;20306;-51
2022/12/25 05:10:58;;;;;;;46.83;4.33;;;11.10;99.90;;;;;;4991936;28;20167;-50
2022/12/25 05:13:24;;;;;;;35.03;4.77;;;10.80;99.90;;;;;;5001255;28;20522;-51
2022/12/25 05:15:50;;;;;;;34.83;3.40;;;11.00;99.90;;;;;;5010752;28;20700;-55
2022/12/25 05:18:16;;;;;;;43.87;5.17;;;11.10;99.90;;;;;;5010295;28;20649;-51
2022/12/25 05:20:42;;;;;;;36.10;4.43;;;11.00;99.90;;;;;;5011493;28;20604;-50
2022/12/25 05:23:11;;;;;;;33.60;4.67;;;10.90;99.90;;;;;;5011769;28;20233;-52
2022/12/25 05:25:39;;;;;;;36.23;4.37;;;11.00;99.90;;;;;;5011237;28;20190;-51
2022/12/25 05:28:06;;;;;;;42.43;4.67;;;;;;;;;;5011449;28;20189;-52
2022/12/25 05:30:32;;;;;;;38.20;4.40;;;11.00;99.90;;;;;;5011602;28;20167;-52
2022/12/25 05:32:58;;;;;;;42.70;5.00;;;11.00;99.90;;;;;;5026250;28;20559;-51
2022/12/25 05:35:24;;;;;;;30.13;4.40;;;11.00;99.90;;;;;;5011632;28;20183;-51
2022/12/25 05:37:49;;;;;;;31.87;4.27;;;11.00;99.90;;;;;;5011724;28;20186;-52
2022/12/25 05:40:15;;;;;;;40.00;4.27;;;11.00;99.90;;;;;;4997245;28;20606;-53
2022/12/25 05:42:41;;;;;;;39.13;4.17;;;11.00;99.90;;;;;;4995638;28;20181;-51
2022/12/25 05:45:07;;;;;;;52.50;4.80;;;11.00;99.90;;;;;;5011538;28;20636;-53
2022/12/25 05:47:32;;;;;;;33.07;4.17;;;11.00;99.90;;;;;;5010208;28;20195;-51
2022/12/25 05:49:58;;;;;;;42.23;4.07;;;11.00;99.90;;;;;;5009897;28;20712;-52
2022/12/25 05:52:23;;;;;;;42.23;4.10;;;11.20;99.90;;;;;;5009452;28;20265;-51
2022/12/25 05:54:50;;;;;;;38.30;4.03;;;11.00;99.90;;;;;;5010463;28;20202;-52
2022/12/25 05:57:16;;;;;;;32.57;3.90;;;11.10;99.90;;;;;;4997670;28;20244;-51
2022/12/25 05:59:41;;;;;;;31.93;3.93;;;11.00;99.90;;;;;;5008348;28;20819;-51
2022/12/25 06:02:07;;;;;;;30.63;3.70;;;11.00;99.90;;;;;;5000421;28;20183;-51
2022/12/25 06:04:33;;;;;;;40.43;4.07;;;11.00;99.90;;;;;;5006564;28;20715;-53
2022/12/25 06:06:58;;;;;;;39.90;4.30;;;11.00;99.90;;;;;;5011162;28;20261;-51
2022/12/25 06:09:24;;;;;;;38.17;4.07;;;11.00;99.90;;;;;;5011152;28;20178;-51
2022/12/25 06:11:49;;;;;;;34.10;3.90;;;11.00;99.90;;;;;;5011282;28;20175;-56
2022/12/25 06:14:15;;;;;;;35.40;4.43;;;10.90;99.90;;;;;;5010836;28;20190;-53
2022/12/25 06:16:41;;;;;;;42.23;4.80;;;11.00;99.90;;;;;;5010974;28;20629;-50
2022/12/25 06:19:07;;;;;;;42.17;4.47;;;;;;;;;;5010271;28;20896;-51
2022/12/25 06:21:33;;;;;;;33.50;3.90;;;11.00;99.90;;;;;;5013318;28;20182;-51
2022/12/25 06:23:59;;;;;;;26.33;3.20;;;11.00;99.90;;;;;;5014995;28;20175;-50
2022/12/25 06:26:25;;;;;;;32.93;3.37;;;11.00;99.90;;;;;;5015145;28;20223;-51
2022/12/25 06:28:51;;;;;;;31.53;3.93;;;11.00;99.90;;;;;;5015023;28;20269;-51
2022/12/25 06:31:19;;;;;;;27.83;3.20;;;10.90;99.90;;;;;;5014834;28;20170;-50
2022/12/25 06:33:46;;;;;;;41.97;4.47;;;11.10;99.90;;;;;;5012273;28;20183;-53
2022/12/25 06:36:19;;;;;;;29.07;3.60;;;10.90;99.90;;;;;;5008474;28;20186;-50
2022/12/25 06:38:45;;;;;;;35.73;3.83;;;11.10;99.90;;;;;;5006473;28;20214;-54
2022/12/25 06:41:14;;;;;;;29.70;3.63;;;11.10;99.90;;;;;;5014871;28;20661;-52
2022/12/25 06:43:40;;;;;;;32.67;3.80;;;11.10;99.90;;;;;;5013496;28;20529;-54
2022/12/25 06:46:08;;;;;;;28.30;3.63;;;11.00;99.90;;;;;;5014770;28;20661;-51
2022/12/25 06:48:35;;;;;;;29.90;3.70;;;11.10;99.90;;;;;;5014437;28;20170;-51
2022/12/25 06:51:02;;;;;;;24.40;3.23;;;11.00;99.90;;;;;;5014821;28;20175;-53
2022/12/25 06:53:28;;;;;;;27.53;4.40;;;11.10;99.90;;;;;;5014631;28;20171;-51
2022/12/25 06:56:00;;;;;;;33.70;3.80;;;11.10;99.90;;;;;;5007048;28;20206;-51
2022/12/25 06:58:27;;;;;;;28.20;3.57;;;11.20;99.90;;;;;;5014492;28;20174;-54
2022/12/25 07:00:53;;;;;;;32.07;3.13;;;11.10;99.90;;;;;;5014903;28;21028;-50
2022/12/25 07:03:21;;;;;;;32.23;3.60;;;10.90;99.90;;;;;;5014539;28;20206;-50
2022/12/25 07:05:46;;;;;;;32.53;4.40;;;11.10;99.90;;;;;;5014507;28;20182;-50
2022/12/25 07:08:12;;;;;;;23.13;3.30;;;11.10;99.90;;;;;;5014907;28;20174;-50
2022/12/25 07:10:38;;;;;;;26.77;2.57;;;11.10;99.90;;;;;;5014526;28;20213;-50
2022/12/25 07:13:04;;;;;;;24.83;2.77;;;11.20;99.90;;;;;;5014433;28;20268;-50
2022/12/25 07:15:29;;;;;;;23.33;3.60;;;11.20;99.90;;;;;;5014262;28;20175;-50
2022/12/25 07:17:55;;;;;;;17.80;2.87;;;11.20;99.90;;;;;;5014204;28;20181;-50
2022/12/25 07:20:21;;;;;;;31.10;3.33;;;11.20;99.90;;;;;;5014254;28;20237;-52
2022/12/25 07:22:46;;;;;;;29.97;4.43;;;11.30;99.90;;;;;;5014049;28;20186;-50
2022/12/25 07:25:12;;;;;;;25.67;3.30;;;11.40;99.90;;;;;;5009703;28;20182;-52
2022/12/25 07:27:37;;;;;;;21.17;3.17;;;11.30;99.90;;;;;;4999686;28;20261;-50
2022/12/25 07:30:04;;;;;;;22.50;2.50;;;11.50;99.90;;;;;;5013780;28;20250;-52
2022/12/25 07:32:30;;;;;;;22.33;2.80;;;11.10;99.90;;;;;;5013740;28;20183;-50
2022/12/25 07:34:56;;;;;;;15.50;1.77;;;11.40;99.90;;;;;;5013964;28;20269;-54
2022/12/25 07:37:22;;;;;;;9.77;1.87;;;11.40;99.90;;;;;;5013284;28;20297;-51
2022/12/25 07:39:47;;;;;;;10.97;1.53;;;11.40;99.90;;;;;;5013310;28;20229;-52
2022/12/25 07:42:13;;;;;;;15.90;2.20;;;11.40;99.90;;;;;;5013460;28;20209;-50
2022/12/25 07:44:39;;;;;;;12.43;2.13;;;11.40;99.90;;;;;;5013505;28;20669;-50
2022/12/25 07:47:04;;;;;;;10.17;2.13;;;11.30;99.90;;;;;;5013405;28;20181;-50
2022/12/25 07:49:30;;;;;;;6.50;1.20;;;11.20;99.90;;;;;;5012884;28;20274;-51
2022/12/25 07:51:55;;;;;;;9.23;1.30;;;11.10;99.90;;;;;;4996849;28;20198;-51
2022/12/25 07:54:21;;;;;;;6.60;0.93;;;11.00;99.90;;;;;;5013538;28;20171;-53
2022/12/25 07:56:51;;;;;;;9.20;1.10;;;11.00;99.90;;;;;;5013478;28;20676;-52
2022/12/25 07:59:17;;;;;;;9.97;1.50;;;11.00;99.90;;;;;;5004443;28;20219;-52
2022/12/25 08:01:43;;;;;;;10.83;1.57;;;10.90;99.90;;;;;;5012948;28;20186;-51
2022/12/25 08:04:10;;;;;;;12.57;1.60;;;10.90;99.90;;;;;;5004216;28;20222;-50
2022/12/25 08:06:36;;;;;;;18.07;2.03;;;10.80;99.90;;;;;;5003744;28;20293;-50
2022/12/25 08:09:08;;;;;;;12.80;2.23;;;10.80;99.90;;;;;;5013170;28;20182;-50
2022/12/25 08:11:34;;;;;;;11.30;2.50;;;10.90;99.90;;;;;;5012921;28;20183;-54
2022/12/25 08:14:00;;;;;;;17.60;2.50;;;10.90;99.90;;;;;;5008726;28;20190;-54
2022/12/25 08:16:25;;;;;;;12.87;2.63;;;11.00;99.90;;;;;;5013066;28;20328;-53
2022/12/25 08:18:52;;;;;;;17.40;2.37;;;11.10;99.90;;;;;;5012477;28;20222;-52
2022/12/25 08:21:18;;;;;;;20.57;2.77;;;11.10;99.90;;;;;;5011819;28;20529;-51
2022/12/25 08:23:45;;;;;;;15.47;2.00;;;11.10;99.90;;;;;;5005211;28;20187;-53
2022/12/25 08:26:18;;;;;;;19.37;2.63;;;11.10;99.90;;;;;;5012584;28;20743;-53
2022/12/25 08:28:44;;;;;;;21.60;2.60;;;11.00;99.90;;;;;;4998803;28;20211;-54
2022/12/25 08:31:15;;;;;;;23.03;3.23;;;11.00;99.90;;;;;;4994397;28;20175;-54
2022/12/25 08:33:40;;;;;;;21.50;2.97;;;11.00;99.90;;;;;;5008291;28;20183;-53
2022/12/25 08:36:08;;;;;;;23.40;3.30;;;11.00;99.90;;;;;;5001754;28;20195;-53
2022/12/25 08:38:34;;;;;;;24.10;2.90;;;11.00;99.90;;;;;;5012487;28;20217;-54
2022/12/25 08:41:00;;;;;;;30.23;3.53;;;10.90;99.90;;;;;;5000240;28;20550;-53
2022/12/25 08:43:26;;;;;;;19.97;3.00;;;11.00;99.90;;;;;;5011707;28;20177;-53
2022/12/25 08:45:52;;;;;;;39.53;3.90;;;;;;;;;;5004820;28;20194;-54
2022/12/25 08:48:18;;;;;;;33.07;3.50;;;11.00;99.90;;;;;;5010336;28;20196;-54
2022/12/25 08:50:48;;;;;;;28.97;3.80;;;11.00;99.90;;;;;;5007148;28;20681;-53
2022/12/25 08:53:14;;;;;;;36.23;3.77;;;;;;;;;;5009761;28;20183;-54
2022/12/25 08:55:40;;;;;;;31.93;4.33;;;11.10;99.90;;;;;;4996953;28;20209;-54
2022/12/25 08:58:07;;;;;;;23.47;3.30;;;10.70;99.90;;;;;;5005580;28;20633;-54
2022/12/25 09:00:32;;;;;;;22.50;2.87;;;11.00;99.90;;;;;;5012350;28;20214;-54
2022/12/25 09:02:58;;;;;;;29.00;4.47;;;11.00;99.90;;;;;;5012063;28;20193;-54
2022/12/25 09:05:24;;;;;;;27.83;3.10;;;;;;;;;;5011455;28;20198;-55
2022/12/25 09:07:49;;;;;;;25.37;3.17;;;11.00;99.90;;;;;;5002171;28;20265;-54
2022/12/25 09:10:15;;;;;;;31.80;3.27;;;11.00;99.90;;;;;;5010024;28;20592;-54
2022/12/25 09:12:41;;;;;;;27.83;3.13;;;11.20;99.90;;;;;;5010994;28;20343;-54
2022/12/25 09:15:07;;;;;;;29.47;3.60;;;11.00;99.90;;;;;;5011119;28;20183;-54
2022/12/25 09:17:32;;;;;;;26.03;3.20;;;11.10;99.90;;;;;;5012112;28;20178;-54
2022/12/25 09:19:59;;;;;;;29.17;3.47;;;11.10;99.90;;;;;;5011679;28;20209;-54
2022/12/25 09:22:24;;;;;;;31.40;3.23;;;11.00;99.90;;;;;;5011382;28;20170;-54
2022/12/25 09:24:50;;;;;;;18.33;2.77;;;11.10;99.90;;;;;;5011403;28;20181;-54
2022/12/25 09:27:15;;;;;;;21.33;2.17;;;11.10;99.90;;;;;;5011563;28;20167;-54
2022/12/25 09:29:41;;;;;;;12.53;1.93;;;11.50;99.90;;;;;;5011770;28;20171;-54
2022/12/25 09:32:07;;;;;;;18.03;2.40;;;11.40;99.90;;;;;;5007883;28;20233;-55
2022/12/25 09:34:33;;;;;;;18.53;2.40;;;11.30;99.90;;;;;;5011492;28;20669;-54
2022/12/25 09:36:59;;;;;;;13.07;2.30;;;11.40;99.90;;;;;;5011419;28;20221;-54
2022/12/25 09:39:24;;;;;;;11.90;3.73;;;11.30;99.90;;;;;;5011341;28;20305;-54
2022/12/25 09:41:55;;;;;;;24.97;3.80;;;11.40;99.90;;;;;;5003834;28;20763;-54
2022/12/25 09:44:34;;;;;;;12.43;2.10;;;11.30;99.90;;;;;;5009235;28;20201;-56
2022/12/25 09:47:10;;;;;;;17.60;2.37;;;11.40;99.90;;;;;;5010268;28;20182;-55
2022/12/25 09:49:53;;;;;;;10.20;2.30;;;11.40;99.90;;;;;;5002219;28;20218;-52
2022/12/25 09:52:24;;;;;;;24.67;9.60;;;11.50;99.90;;;;;;5009146;28;20213;-54
2022/12/25 09:54:56;;;;;;;19.63;2.13;;;11.50;99.90;;;;;;5010888;28;20163;-54
2022/12/25 09:57:24;;;;;;;16.80;3.53;;;11.50;99.90;;;;;;5011000;28;20229;-54
2022/12/25 09:59:53;;;;;;;15.53;2.00;;;11.60;99.90;;;;;;5010901;28;20680;-53
2022/12/25 10:02:40;;;;;;;17.13;2.10;;;11.50;99.90;;;;;;5010992;28;20206;-51
2022/12/25 10:05:44;;;;;;;23.27;2.47;;;11.60;99.90;;;;;;4999657;28;20209;-53
2022/12/25 10:08:18;;;;;;;20.17;2.80;;;11.60;99.90;;;;;;5010619;28;20573;-53
2022/12/25 10:10:59;;;;;;;20.20;3.13;;;11.70;99.90;;;;;;4991588;28;20233;-53
2022/12/25 10:13:52;;;;;;;19.00;2.93;;;11.70;99.90;;;;;;4995721;28;20188;-52
2022/12/25 10:16:36;;;;;;;20.03;2.50;;;11.70;99.90;;;;;;5011190;28;20166;-52
2022/12/25 10:19:15;;;;;;;23.57;2.90;;;11.70;99.90;;;;;;5010018;28;20209;-55
2022/12/25 10:21:41;;;;;;;21.23;2.87;;;11.80;99.90;;;;;;5010620;28;20171;-52
2022/12/25 10:24:29;;;;;;;22.17;2.80;;;11.80;99.90;;;;;;4991616;28;20172;-51
2022/12/25 10:26:56;;;;;;;31.27;2.83;;;11.60;99.90;;;;;;4991525;28;20203;-52
2022/12/25 10:29:21;;;;;;;25.00;2.90;;;12.00;99.90;;;;;;5002714;28;20216;-51
2022/12/25 10:31:50;;;;;;;14.63;2.13;;;12.00;99.90;;;;;;5011049;28;20183;-51
2022/12/25 10:34:16;;;;;;;18.37;2.77;;;12.00;99.90;;;;;;5010982;28;20194;-51
2022/12/25 10:36:44;;;;;;;20.70;2.87;;;11.90;99.90;;;;;;5003266;28;20692;-51
2022/12/25 10:39:20;;;;;;;21.17;2.63;;;12.10;99.90;;;;;;5009292;28;20214;-52
2022/12/25 10:42:07;;;;;;;19.87;2.37;;;12.00;99.90;;;;;;5007451;28;20193;-52
2022/12/25 10:44:33;;;;;;;29.40;2.83;;;12.00;99.90;;;;;;5011013;28;20273;-52
2022/12/25 10:47:02;;;;;;;20.37;2.63;;;11.80;99.90;;;;;;5000730;28;20188;-52
2022/12/25 10:49:38;;;;;;;16.00;2.03;;;11.80;99.90;;;;;;5009180;28;20304;-52
2022/12/25 10:52:19;;;;;;;23.83;2.80;;;11.80;99.90;;;;;;5004028;28;20182;-51
2022/12/25 10:54:44;;;;;;;44.73;10.20;;;11.80;99.90;;;;;;4991232;28;20163;-51
2022/12/25 10:57:16;;;;;;;36.60;8.90;;;11.70;99.90;;;;;;4991291;28;20262;-51
2022/12/25 10:59:54;;;;;;;69.40;13.43;;;11.70;99.90;;;;;;4994851;28;20256;-53
2022/12/25 11:02:34;;;;;;;25.33;4.33;;;11.70;99.90;;;;;;5000384;28;20195;-53
2022/12/25 11:05:11;;;;;;;32.23;4.97;;;11.60;99.90;;;;;;5010821;28;20178;-53
2022/12/25 11:07:53;;;;;;;33.03;5.37;;;11.60;99.90;;;;;;5011882;28;20187;-53
2022/12/25 11:10:21;;;;;;;36.43;6.80;;;11.60;99.90;;;;;;5014300;28;20189;-54
2022/12/25 11:12:47;;;;;;;17.97;2.90;;;11.60;99.90;;;;;;5014010;28;20181;-54
2022/12/25 11:15:31;;;;;;;22.60;3.87;;;11.50;99.90;;;;;;5014076;28;20187;-53
2022/12/25 11:17:57;;;;;;;27.33;3.47;;;11.50;99.90;;;;;;5001627;28;20163;-54
2022/12/25 11:20:24;;;;;;;22.37;3.93;;;11.40;99.90;;;;;;5013287;28;20210;-54
2022/12/25 11:22:50;;;;;;;21.93;4.97;;;11.50;99.90;;;;;;5013467;28;20186;-54
2022/12/25 11:25:24;;;;;;;22.00;3.20;;;11.40;99.90;;;;;;5013561;28;20206;-54
2022/12/25 11:28:04;;;;;;;21.23;4.60;;;11.40;99.90;;;;;;5013613;28;20267;-54
2022/12/25 11:30:32;;;;;;;22.20;5.03;;;11.30;99.90;;;;;;5002840;28;20375;-54
2022/12/25 11:33:05;;;;;;;28.40;8.53;;;11.30;99.90;;;;;;5011110;28;20175;-54
2022/12/25 11:35:36;;;;;;;21.87;5.73;;;11.40;99.90;;;;;;5013336;28;20212;-53
2022/12/25 11:38:03;;;;;;;13.37;2.10;;;;;;;;;;5011229;28;20162;-54
2022/12/25 11:40:39;;;;;;;7.13;2.27;;;11.00;99.90;;;;;;5013290;28;20210;-54
2022/12/25 11:43:34;;;;;;;6.07;1.40;;;10.70;99.90;;;;;;5013023;28;20178;-54
2022/12/25 11:46:09;;;;;;;2.90;0.60;;;10.40;99.90;;;;;;5004387;28;20199;-54
2022/12/25 11:48:49;;;;;;;6.00;2.23;;;10.00;99.90;;;;;;5010791;28;20257;-54
2022/12/25 11:51:16;;;;;;;10.57;3.00;;;10.10;99.90;;;;;;5012919;28;20256;-54
2022/12/25 11:53:50;;;;;;;3.77;0.90;;;10.00;99.90;;;;;;5012781;28;20220;-51
2022/12/25 11:56:26;;;;;;;5.93;0.67;;;10.00;99.90;;;;;;5013505;28;20636;-51
2022/12/25 11:58:53;;;;;;;7.60;3.10;;;10.10;99.90;;;;;;5013414;28;20202;-53
2022/12/25 12:01:48;;;;;;;12.40;3.53;;;10.10;99.90;;;;;;5013209;28;20665;-51
2022/12/25 12:04:20;;;;;;;6.37;1.27;;;10.10;99.90;;;;;;5013558;28;20171;-52
2022/12/25 12:06:54;;;;;;;5.20;0.50;;;10.10;99.90;;;;;;5012851;28;20245;-51
2022/12/25 12:09:42;;;;;;;8.17;2.90;;;10.00;99.90;;;;;;5012903;28;20565;-51
2022/12/25 12:12:15;;;;;;;1.73;0.70;;;10.10;99.90;;;;;;5013458;28;20241;-50
2022/12/25 12:15:02;;;;;;;1.17;0.70;;;10.20;99.90;;;;;;5013320;28;20289;-50
2022/12/25 12:17:28;;;;;;;4.33;0.97;;;10.20;99.90;;;;;;5012330;28;20194;-50
2022/12/25 12:19:53;;;;;;;3.70;1.10;;;10.20;99.90;;;;;;5005758;28;20223;-50
2022/12/25 12:22:25;;;;;;;7.20;2.07;;;10.30;99.90;;;;;;5007039;28;20178;-50
2022/12/25 12:25:05;;;;;;;5.17;0.90;;;10.20;99.90;;;;;;5013007;28;20250;-51
2022/12/25 12:27:36;;;;;;;2.50;0.60;;;;;;;;;;5011553;28;20638;-51
2022/12/25 12:30:03;;;;;;;6.43;1.30;;;10.40;99.90;;;;;;5010986;28;20174;-55
2022/12/25 12:32:38;;;;;;;5.07;0.90;;;;;;;;;;5009712;28;20285;-51
2022/12/25 12:35:25;;;;;;;4.93;0.80;;;10.30;99.90;;;;;;5011864;28;20206;-52
2022/12/25 12:38:05;;;;;;;2.77;0.80;;;9.90;99.90;;;;;;5012936;28;20214;-55
2022/12/25 12:40:41;;;;;;;6.37;1.47;;;10.10;99.90;;;;;;5011971;28;20221;-51
2022/12/25 12:43:29;;;;;;;5.63;0.90;;;10.20;99.90;;;;;;5012637;28;20175;-51
2022/12/25 12:45:56;;;;;;;2.93;0.90;;;;;;;;;;5012744;28;20170;-51
2022/12/25 12:48:27;;;;;;;5.73;0.87;;;10.10;99.90;;;;;;5012623;28;20179;-51
2022/12/25 12:51:04;;;;;;;5.30;1.17;;;10.30;99.90;;;;;;5011684;28;20194;-51
2022/12/25 12:53:32;;;;;;;5.70;1.07;;;9.90;99.90;;;;;;5007668;28;20256;-51
2022/12/25 12:56:26;;;;;;;5.30;1.80;;;10.20;99.90;;;;;;5002437;28;20187;-51
2022/12/25 12:58:51;;;;;;;5.60;1.60;;;10.10;99.90;;;;;;5003821;28;20212;-51
2022/12/25 13:01:46;;;;;;;5.73;1.30;;;10.10;99.90;;;;;;4998985;28;20186;-49
2022/12/25 13:04:57;;;;;;;5.67;0.90;;;10.10;99.90;;;;;;4997503;28;20191;-50
2022/12/25 13:07:42;;;;;;;9.30;1.50;;;10.10;99.90;;;;;;4992605;28;20188;-53
2022/12/25 13:10:32;;;;;;;8.73;1.70;;;10.00;99.90;;;;;;4992788;28;20225;-50
2022/12/25 13:13:10;;;;;;;12.13;1.40;;;10.00;99.90;;;;;;5009166;28;20194;-50
2022/12/25 13:15:37;;;;;;;5.10;1.10;;;9.90;99.90;;;;;;5011840;28;20174;-54
2022/12/25 13:18:09;;;;;;;6.00;1.23;;;10.10;99.90;;;;;;5012024;28;20166;-51
2022/12/25 13:20:40;;;;;;;7.47;1.40;;;;;;;;;;5010113;28;20217;-51
2022/12/25 13:23:22;;;;;;;11.27;1.20;;;10.10;99.90;;;;;;5006278;28;20200;-52
2022/12/25 13:25:53;;;;;;;15.93;4.70;;;10.00;99.90;;;;;;5010433;28;20190;-51
2022/12/25 13:28:30;;;;;;;7.40;1.30;;;10.00;99.90;;;;;;5011764;28;20174;-51
2022/12/25 13:31:29;;;;;;;8.13;1.70;;;10.00;99.90;;;;;;5011625;28;20253;-50
2022/12/25 13:34:05;;;;;;;13.40;2.70;;;9.70;99.90;;;;;;5000042;28;20203;-51
2022/12/25 13:36:37;;;;;;;4.33;0.70;;;10.00;99.90;;;;;;4991981;28;20183;-49
2022/12/25 13:39:07;;;;;;;19.20;4.87;;;10.10;99.90;;;;;;4991865;28;20550;-50
2022/12/25 13:44:33;;;;;;;7.17;1.30;;;10.20;99.90;;;;;;5011206;28;20194;-54
2022/12/25 13:47:16;;;;;;;6.60;1.50;;;10.20;99.90;;;;;;5011543;28;20187;-52
2022/12/25 13:49:41;;;;;;;6.67;0.83;;;10.30;99.90;;;;;;5011598;28;20217;-52
2022/12/25 13:52:12;;;;;;;9.70;2.03;;;10.40;99.90;;;;;;5010847;28;20647;-50
2022/12/25 13:54:38;;;;;;;3.20;0.70;;;10.40;99.90;;;;;;5005537;28;20205;-52
2022/12/25 13:57:11;;;;;;;15.03;4.00;;;10.40;99.90;;;;;;5006183;28;20194;-50
2022/12/25 13:59:37;;;;;;;8.90;2.30;;;10.60;99.90;;;;;;5010641;28;20198;-51
2022/12/25 14:02:03;;;;;;;10.30;3.57;;;10.50;99.90;;;;;;5005644;28;20724;-50
2022/12/25 14:04:29;;;;;;;5.97;1.07;;;10.50;99.90;;;;;;5011273;28;20282;-50
2022/12/25 14:06:54;;;;;;;4.43;0.60;;;10.50;99.90;;;;;;5011159;28;20178;-50
2022/12/25 14:09:21;;;;;;;4.17;0.90;;;10.60;99.90;;;;;;5011343;28;20167;-50
2022/12/25 14:11:50;;;;;;;3.67;0.90;;;10.50;99.90;;;;;;5011266;28;20277;-50
2022/12/25 14:14:20;;;;;;;12.97;4.53;;;10.50;99.90;;;;;;5011023;28;20205;-50
2022/12/25 14:16:48;;;;;;;2.90;1.00;;;10.50;99.90;;;;;;5010892;28;20305;-50
2022/12/25 14:19:31;;;;;;;6.30;1.47;;;10.40;99.90;;;;;;5010132;28;20225;-50
2022/12/25 14:22:01;;;;;;;9.30;3.47;;;10.40;99.90;;;;;;5005072;28;20776;-50
2022/12/25 14:24:28;;;;;;;6.30;1.00;;;10.40;99.90;;;;;;5011084;28;20174;-50
2022/12/25 14:27:03;;;;;;;2.40;0.80;;;10.40;99.90;;;;;;5011123;28;20588;-50
2022/12/25 14:29:43;;;;;;;12.17;6.60;;;10.40;99.90;;;;;;5011253;28;20307;-50
2022/12/25 14:32:20;;;;;;;23.30;12.87;;;10.40;99.90;;;;;;5011074;28;20254;-52
2022/12/25 14:34:49;;;;;;;9.97;4.67;;;10.40;99.90;;;;;;5011095;28;20183;-49
2022/12/25 14:37:19;;;;;;;5.87;3.00;;;10.50;99.90;;;;;;5000462;28;20218;-50
2022/12/25 14:40:00;;;;;;;2.80;1.27;;;10.50;99.90;;;;;;5003158;28;20249;-50
2022/12/25 14:42:30;;;;;;;8.40;3.13;;;10.40;99.90;;;;;;5012242;28;20213;-51
2022/12/25 14:45:27;;;;;;;3.20;1.17;;;10.40;99.90;;;;;;5014522;28;20224;-50
2022/12/25 14:47:56;;;;;;;5.30;0.80;;;10.50;99.90;;;;;;5009071;28;20261;-49